sensor_id;sensor_type;location;lat;lon;timestamp;P1;durP1;ratioP1;P2;durP2;ratioP2
1935;SDS011;969;49.892;10.896;2023-07-20T00:00:24;3.83;;;3.40;;
1935;SDS011;969;49.892;10.896;2023-07-20T00:02:50;3.60;;;3.20;;
1935;SDS011;969;49.892;10.896;2023-07-20T00:05:16;2.73;;;2.43;;
1935;SDS011;969;49.892;10.896;2023-07-20T00:07:46;3.60;;;2.97;;
1935;SDS011;969;49.892;10.896;2023-07-20T00:10:12;3.60;;;3.30;;
1935;SDS011;969;49.892;10.896;2023-07-20T00:12:38;3.70;;;3.40;;
1935;SDS011;969;49.892;10.896;2023-07-20T00:15:04;2.77;;;2.53;;
1935;SDS011;969;49.892;10.896;2023-07-20T00:17:29;3.67;;;3.37;;
1935;SDS011;969;49.892;10.896;2023-07-20T00:19:55;5.87;;;3.00;;
1935;SDS011;969;49.892;10.896;2023-07-20T00:22:21;4.60;;;3.53;;
1935;SDS011;969;49.892;10.896;2023-07-20T00:24:46;5.23;;;3.47;;
1935;SDS011;969;49.892;10.896;2023-07-20T00:27:12;4.27;;;3.10;;
1935;SDS011;969;49.892;10.896;2023-07-20T00:29:37;3.47;;;2.80;;
1935;SDS011;969;49.892;10.896;2023-07-20T00:32:03;3.17;;;2.87;;
1935;SDS011;969;49.892;10.896;2023-07-20T00:34:30;5.57;;;3.47;;
1935;SDS011;969;49.892;10.896;2023-07-20T00:36:56;3.70;;;3.17;;
1935;SDS011;969;49.892;10.896;2023-07-20T00:39:21;3.73;;;3.23;;
1935;SDS011;969;49.892;10.896;2023-07-20T00:41:47;4.93;;;2.67;;
1935;SDS011;969;49.892;10.896;2023-07-20T00:44:12;4.03;;;3.20;;
1935;SDS011;969;49.892;10.896;2023-07-20T00:46:38;4.10;;;3.03;;
1935;SDS011;969;49.892;10.896;2023-07-20T00:49:06;3.70;;;3.20;;
1935;SDS011;969;49.892;10.896;2023-07-20T00:51:32;4.00;;;3.20;;
1935;SDS011;969;49.892;10.896;2023-07-20T00:53:58;2.90;;;2.53;;
1935;SDS011;969;49.892;10.896;2023-07-20T00:56:24;4.90;;;3.30;;
1935;SDS011;969;49.892;10.896;2023-07-20T00:58:50;5.93;;;2.90;;
1935;SDS011;969;49.892;10.896;2023-07-20T01:01:17;3.50;;;2.97;;
1935;SDS011;969;49.892;10.896;2023-07-20T01:03:42;4.13;;;2.93;;
1935;SDS011;969;49.892;10.896;2023-07-20T01:06:10;3.43;;;3.13;;
1935;SDS011;969;49.892;10.896;2023-07-20T01:09:09;3.10;;;2.60;;
1935;SDS011;969;49.892;10.896;2023-07-20T01:11:43;4.17;;;3.07;;
1935;SDS011;969;49.892;10.896;2023-07-20T01:14:24;3.57;;;2.70;;
1935;SDS011;969;49.892;10.896;2023-07-20T01:16:51;4.03;;;3.00;;
1935;SDS011;969;49.892;10.896;2023-07-20T01:19:17;4.50;;;3.10;;
1935;SDS011;969;49.892;10.896;2023-07-20T01:21:46;4.70;;;3.27;;
1935;SDS011;969;49.892;10.896;2023-07-20T01:24:19;5.20;;;3.10;;
1935;SDS011;969;49.892;10.896;2023-07-20T01:32:30;6.30;;;3.50;;
1935;SDS011;969;49.892;10.896;2023-07-20T01:34:57;5.30;;;3.10;;
1935;SDS011;969;49.892;10.896;2023-07-20T01:37:24;3.33;;;3.03;;
1935;SDS011;969;49.892;10.896;2023-07-20T01:39:54;2.63;;;2.43;;
1935;SDS011;969;49.892;10.896;2023-07-20T01:42:23;3.57;;;2.90;;
1935;SDS011;969;49.892;10.896;2023-07-20T01:44:53;4.13;;;3.03;;
1935;SDS011;969;49.892;10.896;2023-07-20T01:47:18;3.23;;;2.93;;
1935;SDS011;969;49.892;10.896;2023-07-20T01:49:44;3.33;;;2.63;;
1935;SDS011;969;49.892;10.896;2023-07-20T01:52:10;3.70;;;3.40;;
1935;SDS011;969;49.892;10.896;2023-07-20T01:54:36;3.67;;;3.20;;
1935;SDS011;969;49.892;10.896;2023-07-20T01:57:02;3.70;;;2.87;;
1935;SDS011;969;49.892;10.896;2023-07-20T01:59:27;4.50;;;3.30;;
1935;SDS011;969;49.892;10.896;2023-07-20T02:01:53;5.83;;;3.50;;
1935;SDS011;969;49.892;10.896;2023-07-20T02:04:19;3.33;;;2.80;;
1935;SDS011;969;49.892;10.896;2023-07-20T02:06:44;5.50;;;4.00;;
1935;SDS011;969;49.892;10.896;2023-07-20T02:09:10;3.90;;;3.10;;
1935;SDS011;969;49.892;10.896;2023-07-20T02:11:35;3.50;;;3.20;;
1935;SDS011;969;49.892;10.896;2023-07-20T02:14:01;4.10;;;3.57;;
1935;SDS011;969;49.892;10.896;2023-07-20T02:16:26;3.17;;;2.87;;
1935;SDS011;969;49.892;10.896;2023-07-20T02:18:52;3.70;;;3.00;;
1935;SDS011;969;49.892;10.896;2023-07-20T02:21:18;3.33;;;3.03;;
1935;SDS011;969;49.892;10.896;2023-07-20T02:23:43;4.57;;;3.50;;
1935;SDS011;969;49.892;10.896;2023-07-20T02:26:09;3.40;;;3.10;;
1935;SDS011;969;49.892;10.896;2023-07-20T02:28:35;3.50;;;3.10;;
1935;SDS011;969;49.892;10.896;2023-07-20T02:31:00;5.50;;;3.70;;
1935;SDS011;969;49.892;10.896;2023-07-20T02:33:26;5.20;;;3.00;;
1935;SDS011;969;49.892;10.896;2023-07-20T02:35:51;3.90;;;3.50;;
1935;SDS011;969;49.892;10.896;2023-07-20T02:38:17;3.90;;;3.50;;
1935;SDS011;969;49.892;10.896;2023-07-20T02:40:43;3.03;;;2.77;;
1935;SDS011;969;49.892;10.896;2023-07-20T02:43:08;6.13;;;3.40;;
1935;SDS011;969;49.892;10.896;2023-07-20T02:45:34;3.43;;;3.13;;
1935;SDS011;969;49.892;10.896;2023-07-20T02:48:00;4.10;;;3.60;;
1935;SDS011;969;49.892;10.896;2023-07-20T02:50:26;3.50;;;2.83;;
1935;SDS011;969;49.892;10.896;2023-07-20T02:52:51;3.60;;;3.10;;
1935;SDS011;969;49.892;10.896;2023-07-20T02:55:17;4.90;;;3.47;;
1935;SDS011;969;49.892;10.896;2023-07-20T02:57:43;3.60;;;3.20;;
1935;SDS011;969;49.892;10.896;2023-07-20T03:00:08;3.80;;;3.43;;
1935;SDS011;969;49.892;10.896;2023-07-20T03:02:35;3.27;;;2.90;;
1935;SDS011;969;49.892;10.896;2023-07-20T03:05:01;3.67;;;2.90;;
1935;SDS011;969;49.892;10.896;2023-07-20T03:07:27;4.17;;;2.93;;
1935;SDS011;969;49.892;10.896;2023-07-20T03:09:53;3.97;;;2.73;;
1935;SDS011;969;49.892;10.896;2023-07-20T03:12:20;4.43;;;3.20;;
1935;SDS011;969;49.892;10.896;2023-07-20T03:14:46;3.50;;;3.10;;
1935;SDS011;969;49.892;10.896;2023-07-20T03:17:11;3.20;;;2.90;;
1935;SDS011;969;49.892;10.896;2023-07-20T03:19:37;3.53;;;2.97;;
1935;SDS011;969;49.892;10.896;2023-07-20T03:22:02;3.53;;;3.20;;
1935;SDS011;969;49.892;10.896;2023-07-20T03:24:28;3.47;;;3.17;;
1935;SDS011;969;49.892;10.896;2023-07-20T03:26:54;3.23;;;2.93;;
1935;SDS011;969;49.892;10.896;2023-07-20T03:29:19;4.87;;;3.07;;
1935;SDS011;969;49.892;10.896;2023-07-20T03:31:45;5.23;;;3.57;;
1935;SDS011;969;49.892;10.896;2023-07-20T03:34:10;4.87;;;3.20;;
1935;SDS011;969;49.892;10.896;2023-07-20T03:36:36;3.57;;;3.00;;
1935;SDS011;969;49.892;10.896;2023-07-20T03:39:02;4.03;;;3.50;;
1935;SDS011;969;49.892;10.896;2023-07-20T03:41:28;4.77;;;3.50;;
1935;SDS011;969;49.892;10.896;2023-07-20T03:43:53;3.40;;;2.87;;
1935;SDS011;969;49.892;10.896;2023-07-20T03:46:19;3.30;;;2.57;;
1935;SDS011;969;49.892;10.896;2023-07-20T03:48:44;3.93;;;3.10;;
1935;SDS011;969;49.892;10.896;2023-07-20T03:51:10;3.13;;;2.80;;
1935;SDS011;969;49.892;10.896;2023-07-20T03:53:36;5.23;;;3.30;;
1935;SDS011;969;49.892;10.896;2023-07-20T03:56:01;4.50;;;3.20;;
1935;SDS011;969;49.892;10.896;2023-07-20T03:58:27;3.33;;;2.77;;
1935;SDS011;969;49.892;10.896;2023-07-20T04:00:54;2.80;;;2.57;;
1935;SDS011;969;49.892;10.896;2023-07-20T04:03:20;3.93;;;2.60;;
1935;SDS011;969;49.892;10.896;2023-07-20T04:05:47;3.43;;;2.70;;
1935;SDS011;969;49.892;10.896;2023-07-20T04:08:13;3.37;;;3.07;;
1935;SDS011;969;49.892;10.896;2023-07-20T04:10:39;3.80;;;3.50;;
1935;SDS011;969;49.892;10.896;2023-07-20T04:13:08;3.90;;;3.30;;
1935;SDS011;969;49.892;10.896;2023-07-20T04:15:33;3.73;;;3.00;;
1935;SDS011;969;49.892;10.896;2023-07-20T04:17:59;3.60;;;3.17;;
1935;SDS011;969;49.892;10.896;2023-07-20T04:20:25;4.40;;;3.33;;
1935;SDS011;969;49.892;10.896;2023-07-20T04:22:51;3.00;;;2.70;;
1935;SDS011;969;49.892;10.896;2023-07-20T04:25:19;3.13;;;2.83;;
1935;SDS011;969;49.892;10.896;2023-07-20T04:27:45;3.20;;;2.87;;
1935;SDS011;969;49.892;10.896;2023-07-20T04:30:11;3.07;;;2.77;;
1935;SDS011;969;49.892;10.896;2023-07-20T04:32:38;3.20;;;2.80;;
1935;SDS011;969;49.892;10.896;2023-07-20T04:35:09;4.03;;;2.90;;
1935;SDS011;969;49.892;10.896;2023-07-20T04:37:34;4.03;;;2.90;;
1935;SDS011;969;49.892;10.896;2023-07-20T04:40:00;3.63;;;3.20;;
1935;SDS011;969;49.892;10.896;2023-07-20T04:42:26;4.57;;;3.00;;
1935;SDS011;969;49.892;10.896;2023-07-20T04:44:52;6.97;;;3.50;;
1935;SDS011;969;49.892;10.896;2023-07-20T04:47:17;3.53;;;2.80;;
1935;SDS011;969;49.892;10.896;2023-07-20T04:49:43;4.33;;;3.00;;
1935;SDS011;969;49.892;10.896;2023-07-20T04:52:08;6.03;;;3.90;;
1935;SDS011;969;49.892;10.896;2023-07-20T04:54:34;3.20;;;2.87;;
1935;SDS011;969;49.892;10.896;2023-07-20T04:56:59;3.40;;;3.10;;
1935;SDS011;969;49.892;10.896;2023-07-20T04:59:25;4.90;;;3.10;;
1935;SDS011;969;49.892;10.896;2023-07-20T05:01:51;5.03;;;3.50;;
1935;SDS011;969;49.892;10.896;2023-07-20T05:04:16;3.37;;;3.07;;
1935;SDS011;969;49.892;10.896;2023-07-20T05:06:42;3.50;;;2.83;;
1935;SDS011;969;49.892;10.896;2023-07-20T05:09:08;4.53;;;3.30;;
1935;SDS011;969;49.892;10.896;2023-07-20T05:11:33;3.70;;;2.83;;
1935;SDS011;969;49.892;10.896;2023-07-20T05:13:59;4.67;;;3.20;;
1935;SDS011;969;49.892;10.896;2023-07-20T05:16:25;4.60;;;2.90;;
1935;SDS011;969;49.892;10.896;2023-07-20T05:18:51;3.77;;;3.13;;
1935;SDS011;969;49.892;10.896;2023-07-20T05:21:16;2.70;;;2.50;;
1935;SDS011;969;49.892;10.896;2023-07-20T05:23:42;2.93;;;2.63;;
1935;SDS011;969;49.892;10.896;2023-07-20T05:26:08;4.77;;;3.30;;
1935;SDS011;969;49.892;10.896;2023-07-20T05:28:34;3.13;;;2.83;;
1935;SDS011;969;49.892;10.896;2023-07-20T05:31:02;3.47;;;2.90;;
1935;SDS011;969;49.892;10.896;2023-07-20T05:33:28;3.03;;;2.50;;
1935;SDS011;969;49.892;10.896;2023-07-20T05:35:53;4.27;;;2.97;;
1935;SDS011;969;49.892;10.896;2023-07-20T05:38:19;2.80;;;2.60;;
1935;SDS011;969;49.892;10.896;2023-07-20T05:40:45;5.27;;;2.83;;
1935;SDS011;969;49.892;10.896;2023-07-20T05:43:12;3.00;;;2.60;;
1935;SDS011;969;49.892;10.896;2023-07-20T05:45:37;3.30;;;3.00;;
1935;SDS011;969;49.892;10.896;2023-07-20T05:48:07;3.80;;;3.03;;
1935;SDS011;969;49.892;10.896;2023-07-20T05:50:34;2.47;;;2.27;;
1935;SDS011;969;49.892;10.896;2023-07-20T05:53:00;3.47;;;3.10;;
1935;SDS011;969;49.892;10.896;2023-07-20T05:55:25;3.10;;;2.80;;
1935;SDS011;969;49.892;10.896;2023-07-20T05:57:51;3.87;;;3.07;;
1935;SDS011;969;49.892;10.896;2023-07-20T06:00:17;3.80;;;3.13;;
1935;SDS011;969;49.892;10.896;2023-07-20T06:02:44;3.17;;;2.73;;
1935;SDS011;969;49.892;10.896;2023-07-20T06:05:09;2.80;;;2.40;;
1935;SDS011;969;49.892;10.896;2023-07-20T06:07:36;2.90;;;2.70;;
1935;SDS011;969;49.892;10.896;2023-07-20T06:10:02;3.10;;;2.80;;
1935;SDS011;969;49.892;10.896;2023-07-20T06:12:28;3.90;;;3.20;;
1935;SDS011;969;49.892;10.896;2023-07-20T06:14:54;4.23;;;2.77;;
1935;SDS011;969;49.892;10.896;2023-07-20T06:17:20;3.20;;;2.90;;
1935;SDS011;969;49.892;10.896;2023-07-20T06:19:46;3.27;;;2.77;;
1935;SDS011;969;49.892;10.896;2023-07-20T06:22:11;3.37;;;2.50;;
1935;SDS011;969;49.892;10.896;2023-07-20T06:24:37;4.23;;;2.80;;
1935;SDS011;969;49.892;10.896;2023-07-20T06:27:03;3.20;;;2.87;;
1935;SDS011;969;49.892;10.896;2023-07-20T06:29:30;4.03;;;3.13;;
1935;SDS011;969;49.892;10.896;2023-07-20T06:31:56;3.40;;;3.10;;
1935;SDS011;969;49.892;10.896;2023-07-20T06:34:21;3.67;;;2.90;;
1935;SDS011;969;49.892;10.896;2023-07-20T06:36:47;3.90;;;3.13;;
1935;SDS011;969;49.892;10.896;2023-07-20T06:39:12;3.87;;;3.47;;
1935;SDS011;969;49.892;10.896;2023-07-20T06:41:39;7.07;;;3.23;;
1935;SDS011;969;49.892;10.896;2023-07-20T06:44:04;4.40;;;3.70;;
1935;SDS011;969;49.892;10.896;2023-07-20T06:46:30;3.67;;;2.80;;
1935;SDS011;969;49.892;10.896;2023-07-20T06:48:56;3.20;;;2.90;;
1935;SDS011;969;49.892;10.896;2023-07-20T06:51:22;2.93;;;2.50;;
1935;SDS011;969;49.892;10.896;2023-07-20T06:53:47;4.40;;;3.03;;
1935;SDS011;969;49.892;10.896;2023-07-20T06:56:13;2.73;;;2.53;;
1935;SDS011;969;49.892;10.896;2023-07-20T06:58:40;2.73;;;2.50;;
1935;SDS011;969;49.892;10.896;2023-07-20T07:01:07;2.70;;;2.40;;
1935;SDS011;969;49.892;10.896;2023-07-20T07:03:33;2.47;;;2.27;;
1935;SDS011;969;49.892;10.896;2023-07-20T07:05:59;3.57;;;2.97;;
1935;SDS011;969;49.892;10.896;2023-07-20T07:08:25;2.63;;;2.43;;
1935;SDS011;969;49.892;10.896;2023-07-20T07:10:51;3.20;;;2.57;;
1935;SDS011;969;49.892;10.896;2023-07-20T07:13:17;3.53;;;2.70;;
1935;SDS011;969;49.892;10.896;2023-07-20T07:15:44;2.73;;;2.53;;
1935;SDS011;969;49.892;10.896;2023-07-20T07:18:09;2.60;;;2.40;;
1935;SDS011;969;49.892;10.896;2023-07-20T07:20:35;4.17;;;2.67;;
1935;SDS011;969;49.892;10.896;2023-07-20T07:23:01;2.60;;;2.00;;
1935;SDS011;969;49.892;10.896;2023-07-20T07:25:27;4.27;;;2.67;;
1935;SDS011;969;49.892;10.896;2023-07-20T07:27:53;2.57;;;2.37;;
1935;SDS011;969;49.892;10.896;2023-07-20T07:30:20;2.90;;;2.50;;
1935;SDS011;969;49.892;10.896;2023-07-20T07:32:46;5.20;;;2.40;;
1935;SDS011;969;49.892;10.896;2023-07-20T07:35:11;4.60;;;2.60;;
1935;SDS011;969;49.892;10.896;2023-07-20T07:37:37;3.40;;;3.10;;
1935;SDS011;969;49.892;10.896;2023-07-20T07:40:03;2.83;;;2.40;;
1935;SDS011;969;49.892;10.896;2023-07-20T07:42:31;2.80;;;2.50;;
1935;SDS011;969;49.892;10.896;2023-07-20T07:44:56;2.67;;;1.97;;
1935;SDS011;969;49.892;10.896;2023-07-20T07:47:22;3.80;;;2.80;;
1935;SDS011;969;49.892;10.896;2023-07-20T07:49:47;2.57;;;2.37;;
1935;SDS011;969;49.892;10.896;2023-07-20T07:52:13;2.67;;;2.17;;
1935;SDS011;969;49.892;10.896;2023-07-20T07:54:39;4.07;;;2.57;;
1935;SDS011;969;49.892;10.896;2023-07-20T07:57:05;2.57;;;2.37;;
1935;SDS011;969;49.892;10.896;2023-07-20T07:59:31;3.30;;;2.17;;
1935;SDS011;969;49.892;10.896;2023-07-20T08:02:01;2.53;;;2.33;;
1935;SDS011;969;49.892;10.896;2023-07-20T08:04:27;3.43;;;2.40;;
1935;SDS011;969;49.892;10.896;2023-07-20T08:06:53;1.93;;;1.80;;
1935;SDS011;969;49.892;10.896;2023-07-20T08:09:19;4.13;;;2.10;;
1935;SDS011;969;49.892;10.896;2023-07-20T08:11:44;2.47;;;1.93;;
1935;SDS011;969;49.892;10.896;2023-07-20T08:14:10;2.60;;;2.40;;
1935;SDS011;969;49.892;10.896;2023-07-20T08:16:35;3.13;;;2.13;;
1935;SDS011;969;49.892;10.896;2023-07-20T08:19:01;1.90;;;1.70;;
1935;SDS011;969;49.892;10.896;2023-07-20T08:21:27;2.23;;;1.90;;
1935;SDS011;969;49.892;10.896;2023-07-20T08:23:53;2.30;;;1.87;;
1935;SDS011;969;49.892;10.896;2023-07-20T08:26:18;3.80;;;2.00;;
1935;SDS011;969;49.892;10.896;2023-07-20T08:28:47;4.33;;;2.07;;
1935;SDS011;969;49.892;10.896;2023-07-20T08:31:13;2.70;;;2.50;;
1935;SDS011;969;49.892;10.896;2023-07-20T08:33:39;2.57;;;1.80;;
1935;SDS011;969;49.892;10.896;2023-07-20T08:36:04;2.13;;;1.90;;
1935;SDS011;969;49.892;10.896;2023-07-20T08:38:31;2.03;;;1.83;;
1935;SDS011;969;49.892;10.896;2023-07-20T08:40:56;1.90;;;1.80;;
1935;SDS011;969;49.892;10.896;2023-07-20T08:43:24;2.47;;;1.83;;
1935;SDS011;969;49.892;10.896;2023-07-20T08:45:50;2.37;;;1.90;;
1935;SDS011;969;49.892;10.896;2023-07-20T08:48:18;4.03;;;1.70;;
1935;SDS011;969;49.892;10.896;2023-07-20T08:50:46;2.80;;;1.97;;
1935;SDS011;969;49.892;10.896;2023-07-20T08:53:15;2.43;;;1.97;;
1935;SDS011;969;49.892;10.896;2023-07-20T08:55:42;2.23;;;2.03;;
1935;SDS011;969;49.892;10.896;2023-07-20T08:58:12;2.67;;;2.20;;
1935;SDS011;969;49.892;10.896;2023-07-20T09:00:39;2.80;;;2.03;;
1935;SDS011;969;49.892;10.896;2023-07-20T09:03:06;2.00;;;1.70;;
1935;SDS011;969;49.892;10.896;2023-07-20T09:05:32;2.37;;;1.57;;
1935;SDS011;969;49.892;10.896;2023-07-20T09:08:00;3.33;;;2.00;;
1935;SDS011;969;49.892;10.896;2023-07-20T09:10:27;3.20;;;2.30;;
1935;SDS011;969;49.892;10.896;2023-07-20T09:12:53;2.20;;;1.70;;
1935;SDS011;969;49.892;10.896;2023-07-20T09:15:20;5.17;;;2.00;;
1935;SDS011;969;49.892;10.896;2023-07-20T09:17:47;5.23;;;2.00;;
1935;SDS011;969;49.892;10.896;2023-07-20T09:20:14;2.83;;;2.00;;
1935;SDS011;969;49.892;10.896;2023-07-20T09:22:41;2.63;;;1.80;;
1935;SDS011;969;49.892;10.896;2023-07-20T09:27:41;3.40;;;2.03;;
1935;SDS011;969;49.892;10.896;2023-07-20T09:30:08;2.03;;;1.83;;
1935;SDS011;969;49.892;10.896;2023-07-20T09:32:39;3.27;;;2.00;;
1935;SDS011;969;49.892;10.896;2023-07-20T09:35:06;3.00;;;2.20;;
1935;SDS011;969;49.892;10.896;2023-07-20T09:37:37;5.00;;;2.83;;
1935;SDS011;969;49.892;10.896;2023-07-20T09:40:02;4.57;;;2.40;;
1935;SDS011;969;49.892;10.896;2023-07-20T09:42:33;4.00;;;2.63;;
1935;SDS011;969;49.892;10.896;2023-07-20T09:45:01;4.07;;;2.80;;
1935;SDS011;969;49.892;10.896;2023-07-20T09:47:27;2.50;;;2.30;;
1935;SDS011;969;49.892;10.896;2023-07-20T09:50:00;4.60;;;2.77;;
1935;SDS011;969;49.892;10.896;2023-07-20T09:52:26;2.77;;;2.30;;
1935;SDS011;969;49.892;10.896;2023-07-20T09:54:51;2.87;;;2.60;;
1935;SDS011;969;49.892;10.896;2023-07-20T09:57:19;2.63;;;2.10;;
1935;SDS011;969;49.892;10.896;2023-07-20T09:59:46;2.73;;;2.37;;
1935;SDS011;969;49.892;10.896;2023-07-20T10:02:21;3.93;;;2.37;;
1935;SDS011;969;49.892;10.896;2023-07-20T10:04:51;2.73;;;2.00;;
1935;SDS011;969;49.892;10.896;2023-07-20T10:07:19;4.47;;;2.73;;
1935;SDS011;969;49.892;10.896;2023-07-20T10:09:48;3.73;;;2.50;;
1935;SDS011;969;49.892;10.896;2023-07-20T10:12:15;2.70;;;2.40;;
1935;SDS011;969;49.892;10.896;2023-07-20T10:14:43;3.57;;;2.47;;
1935;SDS011;969;49.892;10.896;2023-07-20T10:17:16;3.07;;;2.30;;
1935;SDS011;969;49.892;10.896;2023-07-20T10:19:43;4.97;;;2.70;;
1935;SDS011;969;49.892;10.896;2023-07-20T10:22:15;3.90;;;2.30;;
1935;SDS011;969;49.892;10.896;2023-07-20T10:24:49;3.80;;;2.33;;
1935;SDS011;969;49.892;10.896;2023-07-20T10:27:18;2.73;;;2.40;;
1935;SDS011;969;49.892;10.896;2023-07-20T10:29:47;2.53;;;2.33;;
1935;SDS011;969;49.892;10.896;2023-07-20T10:32:13;2.80;;;2.30;;
1935;SDS011;969;49.892;10.896;2023-07-20T10:34:39;3.43;;;2.50;;
1935;SDS011;969;49.892;10.896;2023-07-20T10:37:05;2.67;;;2.30;;
1935;SDS011;969;49.892;10.896;2023-07-20T10:39:32;3.27;;;2.90;;
1935;SDS011;969;49.892;10.896;2023-07-20T10:42:07;3.03;;;2.53;;
1935;SDS011;969;49.892;10.896;2023-07-20T10:44:36;3.43;;;2.40;;
1935;SDS011;969;49.892;10.896;2023-07-20T10:47:03;2.20;;;2.00;;
1935;SDS011;969;49.892;10.896;2023-07-20T10:49:34;5.43;;;2.40;;
1935;SDS011;969;49.892;10.896;2023-07-20T10:52:04;2.17;;;1.80;;
1935;SDS011;969;49.892;10.896;2023-07-20T10:56:56;2.70;;;2.13;;
1935;SDS011;969;49.892;10.896;2023-07-20T11:01:48;2.83;;;2.53;;
1935;SDS011;969;49.892;10.896;2023-07-20T11:04:15;3.60;;;2.70;;
1935;SDS011;969;49.892;10.896;2023-07-20T11:06:44;4.67;;;2.63;;
1935;SDS011;969;49.892;10.896;2023-07-20T11:09:14;4.73;;;2.60;;
1935;SDS011;969;49.892;10.896;2023-07-20T11:11:41;5.97;;;3.20;;
1935;SDS011;969;49.892;10.896;2023-07-20T11:14:08;6.13;;;4.00;;
1935;SDS011;969;49.892;10.896;2023-07-20T11:16:46;2.43;;;2.20;;
1935;SDS011;969;49.892;10.896;2023-07-20T11:19:14;23.07;;;4.03;;
1935;SDS011;969;49.892;10.896;2023-07-20T11:21:41;3.27;;;2.80;;
1935;SDS011;969;49.892;10.896;2023-07-20T11:24:07;4.80;;;2.40;;
1935;SDS011;969;49.892;10.896;2023-07-20T11:29:26;2.70;;;1.93;;
1935;SDS011;969;49.892;10.896;2023-07-20T11:31:52;2.40;;;2.20;;
1935;SDS011;969;49.892;10.896;2023-07-20T11:34:18;2.27;;;1.93;;
1935;SDS011;969;49.892;10.896;2023-07-20T11:36:45;3.17;;;2.23;;
1935;SDS011;969;49.892;10.896;2023-07-20T11:39:13;2.70;;;2.40;;
1935;SDS011;969;49.892;10.896;2023-07-20T11:41:44;2.40;;;2.10;;
1935;SDS011;969;49.892;10.896;2023-07-20T11:44:20;1.97;;;1.67;;
1935;SDS011;969;49.892;10.896;2023-07-20T11:46:51;2.33;;;2.00;;
1935;SDS011;969;49.892;10.896;2023-07-20T11:49:28;2.50;;;2.03;;
1935;SDS011;969;49.892;10.896;2023-07-20T11:51:54;2.40;;;1.90;;
1935;SDS011;969;49.892;10.896;2023-07-20T11:54:21;2.77;;;2.20;;
1935;SDS011;969;49.892;10.896;2023-07-20T11:56:48;2.50;;;2.20;;
1935;SDS011;969;49.892;10.896;2023-07-20T11:59:13;2.47;;;2.27;;
1935;SDS011;969;49.892;10.896;2023-07-20T12:01:39;5.30;;;2.70;;
1935;SDS011;969;49.892;10.896;2023-07-20T12:04:04;3.10;;;2.23;;
1935;SDS011;969;49.892;10.896;2023-07-20T12:06:31;3.57;;;2.47;;
1935;SDS011;969;49.892;10.896;2023-07-20T12:08:57;4.90;;;2.67;;
1935;SDS011;969;49.892;10.896;2023-07-20T12:11:39;4.53;;;2.43;;
1935;SDS011;969;49.892;10.896;2023-07-20T12:14:08;3.13;;;2.40;;
1935;SDS011;969;49.892;10.896;2023-07-20T12:16:34;2.80;;;1.93;;
1935;SDS011;969;49.892;10.896;2023-07-20T12:19:04;3.67;;;2.17;;
1935;SDS011;969;49.892;10.896;2023-07-20T12:21:31;2.57;;;2.00;;
1935;SDS011;969;49.892;10.896;2023-07-20T12:23:59;3.83;;;1.80;;
1935;SDS011;969;49.892;10.896;2023-07-20T12:26:25;2.33;;;2.13;;
1935;SDS011;969;49.892;10.896;2023-07-20T12:28:51;3.10;;;2.20;;
1935;SDS011;969;49.892;10.896;2023-07-20T12:31:17;2.00;;;1.80;;
1935;SDS011;969;49.892;10.896;2023-07-20T12:33:43;2.50;;;1.90;;
1935;SDS011;969;49.892;10.896;2023-07-20T12:36:09;2.93;;;2.07;;
1935;SDS011;969;49.892;10.896;2023-07-20T12:38:35;4.90;;;2.20;;
1935;SDS011;969;49.892;10.896;2023-07-20T12:41:01;2.43;;;2.00;;
1935;SDS011;969;49.892;10.896;2023-07-20T12:43:27;2.67;;;2.00;;
1935;SDS011;969;49.892;10.896;2023-07-20T12:45:54;2.43;;;2.07;;
1935;SDS011;969;49.892;10.896;2023-07-20T12:48:20;2.40;;;1.83;;
1935;SDS011;969;49.892;10.896;2023-07-20T12:50:46;3.50;;;2.20;;
1935;SDS011;969;49.892;10.896;2023-07-20T12:53:12;2.53;;;2.20;;
1935;SDS011;969;49.892;10.896;2023-07-20T12:55:37;2.63;;;1.70;;
1935;SDS011;969;49.892;10.896;2023-07-20T12:58:04;3.43;;;2.40;;
1935;SDS011;969;49.892;10.896;2023-07-20T13:00:30;3.13;;;2.40;;
1935;SDS011;969;49.892;10.896;2023-07-20T13:02:56;3.47;;;2.10;;
1935;SDS011;969;49.892;10.896;2023-07-20T13:05:22;2.83;;;2.07;;
1935;SDS011;969;49.892;10.896;2023-07-20T13:07:48;3.13;;;2.27;;
1935;SDS011;969;49.892;10.896;2023-07-20T13:10:14;2.30;;;1.87;;
1935;SDS011;969;49.892;10.896;2023-07-20T13:12:40;3.27;;;2.30;;
1935;SDS011;969;49.892;10.896;2023-07-20T13:15:06;3.27;;;2.17;;
1935;SDS011;969;49.892;10.896;2023-07-20T13:17:34;2.30;;;2.03;;
1935;SDS011;969;49.892;10.896;2023-07-20T13:20:00;2.73;;;2.30;;
1935;SDS011;969;49.892;10.896;2023-07-20T13:22:27;3.30;;;2.20;;
1935;SDS011;969;49.892;10.896;2023-07-20T13:24:53;2.90;;;2.43;;
1935;SDS011;969;49.892;10.896;2023-07-20T13:27:19;4.13;;;2.30;;
1935;SDS011;969;49.892;10.896;2023-07-20T13:29:45;4.40;;;2.37;;
1935;SDS011;969;49.892;10.896;2023-07-20T13:32:14;3.03;;;2.03;;
1935;SDS011;969;49.892;10.896;2023-07-20T13:34:40;4.33;;;2.17;;
1935;SDS011;969;49.892;10.896;2023-07-20T13:37:06;3.10;;;1.70;;
1935;SDS011;969;49.892;10.896;2023-07-20T13:39:32;3.50;;;2.37;;
1935;SDS011;969;49.892;10.896;2023-07-20T13:41:57;2.63;;;1.83;;
1935;SDS011;969;49.892;10.896;2023-07-20T13:44:23;3.63;;;2.13;;
1935;SDS011;969;49.892;10.896;2023-07-20T13:46:48;2.17;;;1.90;;
1935;SDS011;969;49.892;10.896;2023-07-20T13:49:14;2.67;;;2.30;;
1935;SDS011;969;49.892;10.896;2023-07-20T13:51:43;2.10;;;1.90;;
1935;SDS011;969;49.892;10.896;2023-07-20T13:54:09;2.77;;;1.90;;
1935;SDS011;969;49.892;10.896;2023-07-20T13:56:35;2.80;;;2.13;;
1935;SDS011;969;49.892;10.896;2023-07-20T13:59:01;2.93;;;2.03;;
1935;SDS011;969;49.892;10.896;2023-07-20T14:01:26;2.50;;;1.80;;
1935;SDS011;969;49.892;10.896;2023-07-20T14:03:53;2.67;;;1.93;;
1935;SDS011;969;49.892;10.896;2023-07-20T14:06:20;1.97;;;1.77;;
1935;SDS011;969;49.892;10.896;2023-07-20T14:08:46;2.60;;;2.20;;
1935;SDS011;969;49.892;10.896;2023-07-20T14:11:14;2.53;;;1.93;;
1935;SDS011;969;49.892;10.896;2023-07-20T14:13:39;2.43;;;1.80;;
1935;SDS011;969;49.892;10.896;2023-07-20T14:16:05;2.97;;;1.97;;
1935;SDS011;969;49.892;10.896;2023-07-20T14:18:31;1.80;;;1.70;;
1935;SDS011;969;49.892;10.896;2023-07-20T14:20:56;3.40;;;2.43;;
1935;SDS011;969;49.892;10.896;2023-07-20T14:23:22;3.13;;;1.90;;
1935;SDS011;969;49.892;10.896;2023-07-20T14:25:48;2.90;;;1.70;;
1935;SDS011;969;49.892;10.896;2023-07-20T14:28:14;2.80;;;2.00;;
1935;SDS011;969;49.892;10.896;2023-07-20T14:30:40;3.03;;;1.93;;
1935;SDS011;969;49.892;10.896;2023-07-20T14:33:06;2.90;;;2.00;;
1935;SDS011;969;49.892;10.896;2023-07-20T14:35:32;3.97;;;2.10;;
1935;SDS011;969;49.892;10.896;2023-07-20T14:37:59;3.50;;;2.40;;
1935;SDS011;969;49.892;10.896;2023-07-20T14:40:24;5.53;;;2.50;;
1935;SDS011;969;49.892;10.896;2023-07-20T14:42:50;2.43;;;1.93;;
1935;SDS011;969;49.892;10.896;2023-07-20T14:45:17;4.10;;;2.33;;
1935;SDS011;969;49.892;10.896;2023-07-20T14:47:42;2.67;;;1.70;;
1935;SDS011;969;49.892;10.896;2023-07-20T14:50:08;2.10;;;1.90;;
1935;SDS011;969;49.892;10.896;2023-07-20T14:52:34;3.77;;;2.63;;
1935;SDS011;969;49.892;10.896;2023-07-20T14:55:00;3.00;;;1.73;;
1935;SDS011;969;49.892;10.896;2023-07-20T14:57:25;3.73;;;1.90;;
1935;SDS011;969;49.892;10.896;2023-07-20T14:59:51;4.20;;;2.30;;
1935;SDS011;969;49.892;10.896;2023-07-20T15:02:17;4.67;;;2.50;;
1935;SDS011;969;49.892;10.896;2023-07-20T15:04:49;5.13;;;2.20;;
1935;SDS011;969;49.892;10.896;2023-07-20T15:07:19;4.63;;;2.20;;
1935;SDS011;969;49.892;10.896;2023-07-20T15:09:49;2.97;;;1.90;;
1935;SDS011;969;49.892;10.896;2023-07-20T15:12:14;2.30;;;2.10;;
1935;SDS011;969;49.892;10.896;2023-07-20T15:14:40;2.40;;;2.10;;
1935;SDS011;969;49.892;10.896;2023-07-20T15:17:07;5.07;;;2.80;;
1935;SDS011;969;49.892;10.896;2023-07-20T15:19:33;3.07;;;2.57;;
1935;SDS011;969;49.892;10.896;2023-07-20T15:22:01;3.43;;;2.17;;
1935;SDS011;969;49.892;10.896;2023-07-20T15:24:28;3.60;;;2.20;;
1935;SDS011;969;49.892;10.896;2023-07-20T15:26:54;3.97;;;2.37;;